Time;durP1;ratioP1;P1;durP2;ratioP2;P2;SDS_P1;SDS_P2;PMS_P1;PMS_P2;Temp;Humidity;BMP_temperature;BMP_pressure;BME280_temperature;BME280_humidity;BME280_pressure;Samples;Min_cycle;Max_cycle;Signal;HPM_P1;HPM_P2
2022/03/02 00:01:55;;;;;;;10.70;6.57;;;0.70;99.90;;;;;;5057549;28;20192;-72
2022/03/02 00:04:21;;;;;;;8.80;6.43;;;0.70;99.90;;;;;;5040153;28;20246;-71
2022/03/02 00:06:46;;;;;;;8.50;6.50;;;0.60;99.90;;;;;;5057287;28;20601;-72
2022/03/02 00:09:12;;;;;;;9.57;6.50;;;0.60;99.90;;;;;;5056984;28;20560;-71
2022/03/02 00:11:38;;;;;;;10.07;6.03;;;0.60;99.90;;;;;;5040669;28;20188;-72
2022/03/02 00:14:05;;;;;;;10.07;6.40;;;0.60;99.90;;;;;;5040161;28;20170;-73
2022/03/02 00:16:32;;;;;;;8.80;5.70;;;0.70;99.90;;;;;;5040715;28;20232;-71
2022/03/02 00:18:58;;;;;;;8.90;6.30;;;0.60;99.90;;;;;;5040372;28;20216;-71
2022/03/02 00:21:24;;;;;;;8.87;6.30;;;0.60;99.90;;;;;;5056455;28;20220;-72
2022/03/02 00:23:50;;;;;;;9.17;5.80;;;0.50;99.90;;;;;;5056700;28;20271;-73
2022/03/02 00:26:17;;;;;;;9.53;5.67;;;0.60;99.90;;;;;;5040163;28;20236;-74
2022/03/02 00:28:43;;;;;;;8.07;5.23;;;0.50;99.90;;;;;;5056665;28;20266;-72
2022/03/02 00:31:09;;;;;;;7.57;5.70;;;0.50;99.90;;;;;;5073604;28;20235;-71
2022/03/02 00:33:35;;;;;;;7.70;6.00;;;0.70;99.90;;;;;;5039688;28;20173;-71
2022/03/02 00:36:01;;;;;;;11.17;6.47;;;0.80;99.90;;;;;;5040123;28;20272;-71
2022/03/02 00:38:27;;;;;;;8.40;5.73;;;0.80;99.90;;;;;;5040274;28;20185;-71
2022/03/02 00:40:53;;;;;;;10.03;6.57;;;0.80;99.90;;;;;;5056555;28;20201;-71
2022/03/02 00:43:18;;;;;;;10.47;6.63;;;0.80;99.90;;;;;;5056161;28;20606;-72
2022/03/02 00:45:45;;;;;;;10.67;6.60;;;0.70;99.90;;;;;;5056309;28;20216;-72
2022/03/02 00:48:10;;;;;;;9.60;6.63;;;0.50;99.90;;;;;;5072908;28;20254;-72
2022/03/02 00:50:36;;;;;;;11.03;6.77;;;0.40;99.90;;;;;;5056343;28;20201;-74
2022/03/02 00:53:05;;;;;;;9.07;6.47;;;0.30;99.90;;;;;;5056032;28;20192;-74
2022/03/02 00:55:33;;;;;;;9.93;6.87;;;0.40;99.90;;;;;;5039968;28;20189;-72
2022/03/02 00:57:59;;;;;;;9.60;6.93;;;0.40;99.90;;;;;;5056327;28;20564;-72
2022/03/02 01:00:25;;;;;;;8.37;6.10;;;0.40;99.90;;;;;;5039382;28;20207;-72
2022/03/02 01:02:50;;;;;;;7.87;5.60;;;0.50;99.90;;;;;;5039096;28;20192;-74
2022/03/02 01:05:16;;;;;;;8.30;6.23;;;0.40;99.90;;;;;;5055996;28;20240;-71
2022/03/02 01:07:42;;;;;;;8.67;5.60;;;0.30;99.90;;;;;;5072756;28;20184;-71
2022/03/02 01:10:08;;;;;;;9.87;6.20;;;0.30;99.90;;;;;;5055837;28;20221;-71
2022/03/02 01:12:34;;;;;;;6.97;5.30;;;0.20;99.90;;;;;;5055893;28;20207;-71
2022/03/02 01:15:00;;;;;;;9.03;6.03;;;0.10;99.90;;;;;;5055724;28;20205;-71
2022/03/02 01:17:26;;;;;;;8.70;5.60;;;0.10;99.90;;;;;;5055705;28;20181;-71
2022/03/02 01:19:52;;;;;;;7.80;5.40;;;0.00;99.90;;;;;;5055533;28;20227;-72
2022/03/02 01:22:18;;;;;;;8.73;5.43;;;0.00;99.90;;;;;;5055930;28;20181;-71
2022/03/02 01:24:45;;;;;;;8.57;5.70;;;-0.10;99.90;;;;;;5055357;28;20681;-71
2022/03/02 01:27:10;;;;;;;7.43;5.53;;;-0.10;99.90;;;;;;5072166;28;20295;-71
2022/03/02 01:29:37;;;;;;;7.87;5.53;;;0.00;99.90;;;;;;5055522;28;20730;-71
2022/03/02 01:32:09;;;;;;;8.07;5.60;;;-0.10;99.90;;;;;;5072294;28;20177;-71
2022/03/02 01:34:37;;;;;;;6.67;5.70;;;-0.10;99.90;;;;;;5038670;28;20184;-71
2022/03/02 01:37:03;;;;;;;8.20;5.37;;;-0.10;99.90;;;;;;5055519;28;20185;-71
2022/03/02 01:39:29;;;;;;;8.50;5.47;;;-0.20;99.90;;;;;;5073094;28;20193;-71
2022/03/02 01:41:55;;;;;;;8.73;5.70;;;-0.30;99.90;;;;;;5055478;28;20229;-71
2022/03/02 01:44:22;;;;;;;7.97;5.50;;;-0.30;99.90;;;;;;5038435;28;20187;-71
2022/03/02 01:46:47;;;;;;;7.20;5.23;;;-0.40;99.90;;;;;;5055001;28;20680;-73
2022/03/02 01:49:13;;;;;;;7.27;4.87;;;-0.50;99.90;;;;;;5071812;28;20194;-72
2022/03/02 01:51:39;;;;;;;7.13;5.33;;;-0.50;99.90;;;;;;5038613;28;20188;-71
2022/03/02 01:54:05;;;;;;;7.93;4.57;;;-0.50;99.90;;;;;;5038287;28;20181;-71
2022/03/02 01:56:32;;;;;;;8.17;5.07;;;-0.50;99.90;;;;;;5038528;28;20176;-71
2022/03/02 01:58:58;;;;;;;7.87;4.50;;;-0.50;99.90;;;;;;5038233;28;20207;-72
2022/03/02 02:01:24;;;;;;;6.40;4.60;;;-0.50;99.90;;;;;;5038480;28;20200;-72
2022/03/02 02:03:50;;;;;;;5.60;4.53;;;-0.50;99.90;;;;;;5038277;28;20674;-74
2022/03/02 02:06:16;;;;;;;6.37;4.30;;;-0.50;99.90;;;;;;5038199;28;20306;-71
2022/03/02 02:08:42;;;;;;;6.47;4.77;;;-0.50;99.90;;;;;;5038430;28;20289;-71
2022/03/02 02:11:10;;;;;;;7.87;5.33;;;-0.50;99.90;;;;;;5038133;28;20227;-72
2022/03/02 02:13:36;;;;;;;7.20;4.80;;;-0.60;99.90;;;;;;5054452;28;20214;-73
2022/03/02 02:16:04;;;;;;;8.73;5.33;;;-0.60;99.90;;;;;;5054610;28;20246;-71
2022/03/02 02:18:30;;;;;;;6.80;4.87;;;-0.60;99.90;;;;;;5038208;28;20184;-71
2022/03/02 02:20:59;;;;;;;6.50;4.80;;;-0.60;99.90;;;;;;5054381;28;20220;-71
2022/03/02 02:23:25;;;;;;;7.83;5.10;;;-0.50;99.90;;;;;;5038260;28;20660;-71
2022/03/02 02:25:50;;;;;;;8.50;5.93;;;-0.50;99.90;;;;;;5037764;28;20208;-72
2022/03/02 02:28:22;;;;;;;7.67;4.57;;;-0.50;99.90;;;;;;5037746;28;20188;-73
2022/03/02 02:30:49;;;;;;;6.20;4.77;;;-0.50;99.90;;;;;;5071303;28;20207;-71
2022/03/02 02:33:14;;;;;;;7.30;4.77;;;-0.60;99.90;;;;;;5037757;28;20559;-76
2022/03/02 02:35:40;;;;;;;8.23;5.17;;;-0.70;99.90;;;;;;5054439;28;20677;-74
2022/03/02 02:38:07;;;;;;;7.30;5.40;;;-0.70;99.90;;;;;;5037731;28;20192;-74
2022/03/02 02:40:34;;;;;;;6.57;5.20;;;-0.70;99.90;;;;;;5037610;28;20619;-77
2022/03/02 02:42:59;;;;;;;9.13;5.40;;;-0.60;99.90;;;;;;5037889;28;20177;-74
2022/03/02 02:45:25;;;;;;;5.77;4.80;;;-0.50;99.90;;;;;;5037667;28;20265;-75
2022/03/02 02:47:54;;;;;;;6.93;5.20;;;-0.50;99.90;;;;;;5037658;28;20188;-75
2022/03/02 02:50:28;;;;;;;7.73;4.97;;;-0.50;99.90;;;;;;5037823;28;20203;-74
2022/03/02 02:52:55;;;;;;;7.37;5.53;;;-0.50;99.90;;;;;;5037959;28;20230;-74
2022/03/02 02:55:22;;;;;;;8.43;5.40;;;-0.40;99.90;;;;;;5037003;28;20690;-74
2022/03/02 02:57:49;;;;;;;8.73;6.27;;;-0.30;99.90;;;;;;5054272;28;20196;-74
2022/03/02 03:00:18;;;;;;;8.63;6.57;;;-0.20;99.90;;;;;;5053592;28;20260;-74
2022/03/02 03:02:46;;;;;;;11.17;7.43;;;-0.20;99.90;;;;;;5037883;28;20183;-74
2022/03/02 03:05:14;;;;;;;9.53;7.07;;;-0.10;99.90;;;;;;5037641;28;20216;-74
2022/03/02 03:07:40;;;;;;;9.90;6.77;;;-0.10;99.90;;;;;;5037574;28;20188;-74
2022/03/02 03:10:07;;;;;;;7.57;6.07;;;-0.30;99.90;;;;;;5054057;28;20200;-74
2022/03/02 03:12:34;;;;;;;10.00;6.63;;;-0.40;99.90;;;;;;5037648;28;20262;-74
2022/03/02 03:15:00;;;;;;;11.27;7.50;;;-0.40;99.90;;;;;;5037317;28;20637;-74
2022/03/02 03:17:26;;;;;;;7.60;5.57;;;-0.40;99.90;;;;;;5070545;28;20190;-75
2022/03/02 03:19:51;;;;;;;9.70;6.63;;;-0.40;99.90;;;;;;5053584;28;20209;-76
2022/03/02 03:22:17;;;;;;;10.20;6.97;;;-0.50;99.90;;;;;;5037264;28;20215;-74
2022/03/02 03:24:43;;;;;;;9.70;6.70;;;-0.50;99.90;;;;;;5053808;28;20187;-74
2022/03/02 03:27:08;;;;;;;8.37;6.10;;;-0.50;99.90;;;;;;5037505;28;20181;-74
2022/03/02 03:29:34;;;;;;;11.93;6.97;;;-0.50;99.90;;;;;;5037149;28;20239;-74
2022/03/02 03:32:00;;;;;;;10.30;6.70;;;-0.40;99.90;;;;;;5053655;28;20188;-74
2022/03/02 03:34:25;;;;;;;9.57;7.00;;;-0.30;99.90;;;;;;5036988;28;20188;-74
2022/03/02 03:36:52;;;;;;;9.97;6.83;;;-0.30;99.90;;;;;;5037162;28;20185;-74
2022/03/02 03:39:18;;;;;;;11.13;7.10;;;-0.30;99.90;;;;;;5037349;28;20189;-74
2022/03/02 03:41:44;;;;;;;11.33;8.03;;;-0.30;99.90;;;;;;5053586;28;20180;-74
2022/03/02 03:44:10;;;;;;;10.97;7.27;;;-0.40;99.90;;;;;;5053499;28;20181;-75
2022/03/02 03:46:36;;;;;;;10.60;7.10;;;-0.40;99.90;;;;;;5070177;28;20707;-74
2022/03/02 03:49:01;;;;;;;12.20;7.33;;;-0.30;99.90;;;;;;5037141;28;20181;-74
2022/03/02 03:51:27;;;;;;;13.70;7.40;;;-0.40;99.90;;;;;;5036819;28;20251;-74
2022/03/02 03:53:52;;;;;;;10.73;7.37;;;-0.50;99.90;;;;;;5036694;28;20238;-74
2022/03/02 03:56:18;;;;;;;11.43;7.50;;;-0.60;99.90;;;;;;5037142;28;20553;-75
2022/03/02 03:58:44;;;;;;;10.43;7.63;;;-0.60;99.90;;;;;;5070266;28;20184;-74
2022/03/02 04:01:10;;;;;;;12.43;7.23;;;-0.60;99.90;;;;;;5036936;28;20212;-74
2022/03/02 04:03:36;;;;;;;12.20;7.63;;;-0.70;99.90;;;;;;5053248;28;20704;-74
2022/03/02 04:06:02;;;;;;;10.80;7.00;;;-0.70;99.90;;;;;;5037043;28;20306;-74
2022/03/02 04:08:28;;;;;;;10.87;7.60;;;-0.70;99.90;;;;;;5040417;28;20264;-74
2022/03/02 04:10:53;;;;;;;10.53;7.20;;;-0.70;99.90;;;;;;5073779;28;20287;-74
2022/03/02 04:13:19;;;;;;;12.33;7.20;;;-0.80;99.90;;;;;;5056821;28;20267;-74
2022/03/02 04:15:45;;;;;;;10.90;7.60;;;-0.70;99.90;;;;;;5073645;28;20180;-74
2022/03/02 04:18:12;;;;;;;12.00;7.33;;;-0.70;99.90;;;;;;5073851;28;20664;-75
2022/03/02 04:20:38;;;;;;;10.97;7.40;;;-0.60;99.90;;;;;;5040321;28;20770;-74
2022/03/02 04:23:05;;;;;;;12.20;7.83;;;-0.60;99.90;;;;;;5056658;28;20651;-74
2022/03/02 04:25:31;;;;;;;10.10;7.53;;;-0.50;99.90;;;;;;5056851;28;20231;-74
2022/03/02 04:27:56;;;;;;;10.83;7.40;;;-0.50;99.90;;;;;;5056854;28;20173;-74
2022/03/02 04:30:22;;;;;;;10.13;6.73;;;-0.50;99.90;;;;;;5040154;28;20228;-71
2022/03/02 04:32:48;;;;;;;10.27;7.13;;;-0.50;99.90;;;;;;5056553;28;20180;-71
2022/03/02 04:35:14;;;;;;;10.43;7.10;;;-0.60;99.90;;;;;;5073565;28;20171;-72
2022/03/02 04:37:40;;;;;;;10.70;6.83;;;-0.60;99.90;;;;;;5056493;28;20208;-71
2022/03/02 04:40:07;;;;;;;10.53;7.00;;;-0.50;99.90;;;;;;5039827;28;20201;-71
2022/03/02 04:42:33;;;;;;;10.60;6.83;;;-0.50;99.90;;;;;;5039711;28;20278;-74
2022/03/02 04:44:59;;;;;;;10.10;6.80;;;-0.40;99.90;;;;;;5056218;28;20291;-74
2022/03/02 04:47:25;;;;;;;8.83;6.57;;;-0.40;99.90;;;;;;5073136;28;20176;-74
2022/03/02 04:49:51;;;;;;;8.63;6.73;;;-0.30;99.90;;;;;;5056107;28;20207;-74
2022/03/02 04:52:17;;;;;;;8.87;6.63;;;-0.30;99.90;;;;;;5039767;28;20180;-75
2022/03/02 04:57:28;;;;;;;10.63;7.07;;;-0.40;99.90;;;;;;5059229;28;20187;-75
2022/03/02 04:59:53;;;;;;;10.10;6.87;;;-0.40;99.90;;;;;;5039394;28;20196;-74
2022/03/02 05:02:19;;;;;;;9.37;6.83;;;-0.40;99.90;;;;;;5039350;28;20181;-74
2022/03/02 05:04:45;;;;;;;8.70;6.63;;;-0.30;99.90;;;;;;5055785;28;20622;-74
2022/03/02 05:07:11;;;;;;;9.10;6.87;;;-0.30;99.90;;;;;;5039543;28;20313;-74
2022/03/02 05:09:36;;;;;;;10.17;6.57;;;-0.20;99.90;;;;;;5072480;28;20238;-74
2022/03/02 05:12:03;;;;;;;9.43;6.80;;;-0.20;99.90;;;;;;5072466;28;20172;-74
2022/03/02 05:14:31;;;;;;;9.80;6.50;;;-0.30;99.90;;;;;;5055586;28;20183;-75
2022/03/02 05:16:57;;;;;;;10.77;6.90;;;-0.30;99.90;;;;;;5038629;28;20596;-74
2022/03/02 05:19:23;;;;;;;8.73;6.10;;;-0.20;99.90;;;;;;5055443;28;20313;-74
2022/03/02 05:21:48;;;;;;;9.23;6.30;;;-0.20;99.90;;;;;;5039796;28;20630;-75
2022/03/02 05:24:14;;;;;;;9.60;6.73;;;-0.30;99.90;;;;;;5038965;28;20192;-75
2022/03/02 05:26:41;;;;;;;8.07;6.10;;;-0.40;99.90;;;;;;5038785;28;20237;-75
2022/03/02 05:29:07;;;;;;;9.00;6.30;;;-0.40;99.90;;;;;;5055429;28;20217;-75
2022/03/02 05:31:33;;;;;;;10.23;6.57;;;-0.30;99.90;;;;;;5038932;28;20188;-75
2022/03/02 05:34:00;;;;;;;9.10;6.60;;;-0.30;99.90;;;;;;5038626;28;20185;-75
2022/03/02 05:36:26;;;;;;;9.97;7.30;;;-0.30;99.90;;;;;;5055398;28;20177;-75
2022/03/02 05:38:53;;;;;;;11.10;7.03;;;-0.30;99.90;;;;;;5055486;28;20553;-75
2022/03/02 05:41:20;;;;;;;9.27;6.57;;;-0.30;99.90;;;;;;5038881;28;20201;-75
2022/03/02 05:43:45;;;;;;;10.83;7.43;;;-0.30;99.90;;;;;;5038594;28;20192;-75
2022/03/02 05:46:11;;;;;;;8.70;6.20;;;-0.30;99.90;;;;;;5038730;28;20197;-75
2022/03/02 05:48:37;;;;;;;9.20;6.70;;;-0.40;99.90;;;;;;5038788;28;20672;-75
2022/03/02 05:51:03;;;;;;;11.27;6.83;;;-0.40;99.90;;;;;;5038637;28;20196;-75
2022/03/02 05:53:29;;;;;;;10.33;6.57;;;-0.40;99.90;;;;;;5038485;28;20176;-75
2022/03/02 05:55:54;;;;;;;8.80;6.20;;;-0.50;99.90;;;;;;5054983;28;20187;-75
2022/03/02 05:58:20;;;;;;;10.80;7.10;;;-0.50;99.90;;;;;;5038333;28;20172;-75
2022/03/02 06:00:45;;;;;;;9.57;6.77;;;-0.40;99.90;;;;;;5038157;28;20569;-75
2022/03/02 06:03:11;;;;;;;8.87;6.47;;;-0.50;99.90;;;;;;5054798;28;20199;-75
2022/03/02 06:05:37;;;;;;;9.47;6.60;;;-0.50;99.90;;;;;;5038289;28;20778;-77
2022/03/02 06:08:03;;;;;;;8.07;6.07;;;-0.50;99.90;;;;;;5055044;28;20177;-77
2022/03/02 06:10:29;;;;;;;10.10;6.50;;;-0.50;99.90;;;;;;5038227;28;20203;-77
2022/03/02 06:12:55;;;;;;;10.63;6.97;;;-0.50;99.90;;;;;;5071076;28;20176;-78
2022/03/02 06:15:21;;;;;;;11.00;6.80;;;-0.50;99.90;;;;;;5054653;28;20242;-77
2022/03/02 06:17:47;;;;;;;10.23;6.80;;;-0.50;99.90;;;;;;5038243;28;20187;-77
2022/03/02 06:20:13;;;;;;;9.17;6.73;;;-0.40;99.90;;;;;;5038006;28;20263;-77
2022/03/02 06:22:39;;;;;;;9.93;6.63;;;-0.30;99.90;;;;;;5054652;28;20181;-77
2022/03/02 06:25:07;;;;;;;10.10;6.67;;;-0.30;99.90;;;;;;5054298;28;20200;-77
2022/03/02 06:27:34;;;;;;;9.40;6.83;;;-0.30;99.90;;;;;;5038167;28;20229;-77
2022/03/02 06:29:59;;;;;;;10.93;7.53;;;-0.30;99.90;;;;;;5037434;28;20313;-77
2022/03/02 06:32:25;;;;;;;9.00;6.13;;;-0.30;99.90;;;;;;5054374;28;20211;-78
2022/03/02 06:34:50;;;;;;;10.17;6.50;;;0.20;99.90;;;;;;5037850;28;20237;-78
2022/03/02 06:37:17;;;;;;;11.27;7.17;;;1.30;99.90;;;;;;5038420;28;20179;-77
2022/03/02 06:39:43;;;;;;;10.13;6.60;;;2.10;99.90;;;;;;5072317;28;20201;-79
2022/03/02 06:42:23;;;;;;;7.63;5.73;;;2.80;99.90;;;;;;5073359;28;20590;-79
2022/03/02 06:45:06;;;;;;;9.93;6.73;;;3.30;99.90;;;;;;5055746;28;20225;-78
2022/03/02 06:47:49;;;;;;;10.77;6.83;;;2.90;99.90;;;;;;5037812;28;20329;-78
2022/03/02 06:50:19;;;;;;;10.53;6.80;;;2.20;99.90;;;;;;5054077;28;20204;-78
2022/03/02 06:52:45;;;;;;;10.03;7.00;;;1.70;99.90;;;;;;5037702;28;20665;-75
2022/03/02 06:55:16;;;;;;;10.97;6.90;;;1.40;99.90;;;;;;5054311;28;20184;-74
2022/03/02 06:57:50;;;;;;;10.20;7.07;;;1.10;99.90;;;;;;5037796;28;20205;-76
2022/03/02 07:00:17;;;;;;;9.90;7.10;;;0.90;99.90;;;;;;5054181;28;20188;-76
2022/03/02 07:03:02;;;;;;;10.40;6.97;;;0.70;99.90;;;;;;5037500;28;20234;-75
2022/03/02 07:05:28;;;;;;;12.50;7.63;;;0.60;99.90;;;;;;5053919;28;20199;-75
2022/03/02 07:07:54;;;;;;;18.73;10.43;;;0.50;99.90;;;;;;5037481;28;20610;-76
2022/03/02 07:10:20;;;;;;;15.47;8.70;;;0.60;99.90;;;;;;5037534;28;20287;-76
2022/03/02 07:12:46;;;;;;;13.23;8.30;;;0.80;99.90;;;;;;5053774;28;20201;-76
2022/03/02 07:15:12;;;;;;;11.47;6.87;;;0.80;99.90;;;;;;5037428;28;20180;-76
2022/03/02 07:17:39;;;;;;;10.37;7.20;;;0.70;99.90;;;;;;5037250;28;20173;-76
2022/03/02 07:20:10;;;;;;;10.37;6.67;;;0.90;99.90;;;;;;5037398;28;20278;-76
2022/03/02 07:22:42;;;;;;;9.67;7.27;;;0.80;99.90;;;;;;5053955;28;20714;-76
2022/03/02 07:25:19;;;;;;;10.77;7.37;;;0.90;99.90;;;;;;5053870;28;20220;-76
2022/03/02 07:27:45;;;;;;;11.77;7.40;;;1.00;99.90;;;;;;5053948;28;20203;-76
2022/03/02 07:30:11;;;;;;;9.67;7.13;;;1.00;99.90;;;;;;5037173;28;20672;-76
2022/03/02 07:32:41;;;;;;;9.87;7.20;;;1.00;99.90;;;;;;5053648;28;20181;-76
2022/03/02 07:35:07;;;;;;;10.60;7.07;;;1.00;99.90;;;;;;5037525;28;20563;-76
2022/03/02 07:37:33;;;;;;;12.97;8.17;;;1.10;99.90;;;;;;5037320;28;20204;-76
2022/03/02 07:39:59;;;;;;;12.77;8.37;;;1.10;99.90;;;;;;5070471;28;20235;-76
2022/03/02 07:42:25;;;;;;;12.40;8.70;;;1.00;99.90;;;;;;5057765;28;20173;-76
2022/03/02 07:44:52;;;;;;;13.93;8.97;;;1.00;99.90;;;;;;5040650;28;20180;-76
2022/03/02 07:47:18;;;;;;;11.17;7.83;;;1.00;99.90;;;;;;5041093;28;20222;-76
2022/03/02 07:49:46;;;;;;;14.63;8.40;;;1.00;99.90;;;;;;5040907;28;20203;-76
2022/03/02 07:52:14;;;;;;;10.60;8.20;;;0.90;99.90;;;;;;5041149;28;20173;-76
2022/03/02 07:54:41;;;;;;;12.30;8.70;;;1.10;99.90;;;;;;5040676;28;20169;-76
2022/03/02 07:57:08;;;;;;;12.10;8.73;;;1.10;99.90;;;;;;5040925;28;20233;-76
2022/03/02 07:59:36;;;;;;;12.73;8.87;;;1.10;99.90;;;;;;5057060;28;20193;-76
2022/03/02 08:02:08;;;;;;;12.40;8.83;;;1.10;99.90;;;;;;5057271;28;20177;-76
2022/03/02 08:04:35;;;;;;;12.63;8.87;;;1.20;99.90;;;;;;5040549;28;20189;-76
2022/03/02 08:07:01;;;;;;;14.70;9.03;;;1.10;99.90;;;;;;5040535;28;20699;-76
2022/03/02 08:09:27;;;;;;;11.97;8.50;;;1.10;99.90;;;;;;5056989;28;20289;-76
2022/03/02 08:11:53;;;;;;;13.80;9.57;;;1.10;99.90;;;;;;5073605;28;20626;-75
2022/03/02 08:14:19;;;;;;;12.70;9.63;;;1.20;99.90;;;;;;5040267;28;20173;-76
2022/03/02 08:16:48;;;;;;;13.37;8.90;;;1.20;99.90;;;;;;5040532;28;20649;-76
2022/03/02 08:19:14;;;;;;;14.93;8.80;;;1.30;99.90;;;;;;5040230;28;20188;-76
2022/03/02 08:21:42;;;;;;;13.20;9.20;;;1.30;99.90;;;;;;5040314;28;20181;-76
2022/03/02 08:24:12;;;;;;;12.23;9.07;;;1.40;99.90;;;;;;5056894;28;20715;-75
2022/03/02 08:26:39;;;;;;;13.57;9.63;;;1.40;99.90;;;;;;5040136;28;20696;-77
2022/03/02 08:29:11;;;;;;;12.73;9.23;;;1.50;99.90;;;;;;5056833;28;20205;-77
2022/03/02 08:31:39;;;;;;;12.77;8.87;;;1.50;99.90;;;;;;5040111;28;20223;-77
2022/03/02 08:34:07;;;;;;;12.37;8.97;;;1.50;99.90;;;;;;5040131;28;20737;-77
2022/03/02 08:36:34;;;;;;;12.80;8.67;;;1.50;99.90;;;;;;5040542;28;20188;-77
2022/03/02 08:39:08;;;;;;;12.77;9.30;;;1.40;99.90;;;;;;5056390;28;20620;-77
2022/03/02 08:41:35;;;;;;;15.00;10.03;;;1.40;99.90;;;;;;5040043;28;20235;-77
2022/03/02 08:44:02;;;;;;;12.23;8.97;;;1.40;99.90;;;;;;5039933;28;20547;-77
2022/03/02 08:46:27;;;;;;;14.37;9.60;;;1.40;99.90;;;;;;5056439;28;20214;-77
2022/03/02 08:48:53;;;;;;;13.57;9.63;;;1.50;99.90;;;;;;5039722;28;20169;-77
2022/03/02 08:51:25;;;;;;;12.10;9.17;;;1.40;99.90;;;;;;5039646;28;20200;-77
2022/03/02 08:53:54;;;;;;;15.57;9.80;;;1.40;99.90;;;;;;5038909;28;20169;-77
2022/03/02 08:56:21;;;;;;;14.10;9.87;;;1.50;99.90;;;;;;5040047;28;20225;-77
2022/03/02 08:58:47;;;;;;;13.60;8.80;;;1.50;99.90;;;;;;5039813;28;20216;-77
2022/03/02 09:01:14;;;;;;;15.67;9.90;;;1.50;99.90;;;;;;5038941;28;20198;-77
2022/03/02 09:03:46;;;;;;;13.53;10.07;;;1.50;99.90;;;;;;5039366;28;20230;-78
2022/03/02 09:06:12;;;;;;;14.57;9.67;;;1.60;99.90;;;;;;5039304;28;20212;-77
2022/03/02 09:08:38;;;;;;;13.27;9.13;;;1.60;99.90;;;;;;5055921;28;20656;-77
2022/03/02 09:11:05;;;;;;;13.10;9.90;;;1.60;99.90;;;;;;5039477;28;20227;-77
2022/03/02 09:13:31;;;;;;;14.57;9.50;;;1.80;99.90;;;;;;5055948;28;20214;-76
2022/03/02 09:15:57;;;;;;;17.53;11.70;;;1.80;99.90;;;;;;5039260;28;20185;-75
2022/03/02 09:18:23;;;;;;;14.33;9.77;;;1.90;99.90;;;;;;5022869;28;20226;-75
2022/03/02 09:20:56;;;;;;;13.90;9.60;;;1.90;99.90;;;;;;5038726;28;20308;-75
2022/03/02 09:23:27;;;;;;;13.23;8.83;;;1.90;99.90;;;;;;5055866;28;20205;-75
2022/03/02 09:25:56;;;;;;;17.30;11.20;;;2.00;99.90;;;;;;5055589;28;20193;-75
2022/03/02 09:28:26;;;;;;;23.50;12.60;;;2.20;99.90;;;;;;5055651;28;20540;-75
2022/03/02 09:30:52;;;;;;;15.30;10.10;;;2.20;99.90;;;;;;5038918;28;20200;-77
2022/03/02 09:33:23;;;;;;;20.53;11.73;;;2.20;99.90;;;;;;5038519;28;20173;-77
2022/03/02 09:35:49;;;;;;;18.70;11.67;;;2.30;99.90;;;;;;5022555;28;20222;-77
2022/03/02 09:38:19;;;;;;;15.50;10.23;;;2.30;99.90;;;;;;5038979;28;20205;-77
2022/03/02 09:40:50;;;;;;;12.90;9.03;;;2.30;99.90;;;;;;5055412;28;20201;-77
2022/03/02 09:43:19;;;;;;;14.67;9.27;;;2.30;99.90;;;;;;5038700;28;20189;-77
2022/03/02 09:45:48;;;;;;;11.90;8.67;;;2.40;99.90;;;;;;5055354;28;20626;-77
2022/03/02 09:48:30;;;;;;;12.97;8.53;;;2.40;99.90;;;;;;5055359;28;20243;-77
2022/03/02 09:51:23;;;;;;;14.57;8.77;;;2.40;99.90;;;;;;5055256;28;20208;-77
2022/03/02 09:53:53;;;;;;;13.47;8.53;;;2.50;99.90;;;;;;5054948;28;20181;-77
2022/03/02 09:56:20;;;;;;;15.50;9.87;;;2.60;99.90;;;;;;5038739;28;20278;-77
2022/03/02 09:58:51;;;;;;;15.00;9.47;;;2.60;99.90;;;;;;5055089;28;20170;-77
2022/03/02 10:01:21;;;;;;;18.50;11.07;;;2.70;99.90;;;;;;5054883;28;20198;-77
2022/03/02 10:03:50;;;;;;;14.13;9.87;;;2.70;99.90;;;;;;5053941;28;20174;-77
2022/03/02 10:06:17;;;;;;;23.73;12.77;;;2.60;99.90;;;;;;5054729;28;20199;-77
2022/03/02 10:08:52;;;;;;;16.70;10.53;;;2.70;99.90;;;;;;5054945;28;20170;-76
2022/03/02 10:11:23;;;;;;;17.70;10.63;;;2.80;99.90;;;;;;5021847;28;20199;-76
2022/03/02 10:13:50;;;;;;;16.10;10.37;;;3.00;99.90;;;;;;5038473;28;20204;-75
2022/03/02 10:16:25;;;;;;;16.70;10.73;;;3.10;99.90;;;;;;5054508;28;20173;-77
2022/03/02 10:19:02;;;;;;;23.23;13.53;;;3.20;99.90;;;;;;5022110;28;20183;-76
2022/03/02 10:21:33;;;;;;;17.67;10.47;;;3.40;99.90;;;;;;5037995;28;20297;-75
2022/03/02 10:24:03;;;;;;;14.50;10.13;;;3.70;99.90;;;;;;5054470;28;20743;-75
2022/03/02 10:26:40;;;;;;;15.07;9.43;;;4.00;99.90;;;;;;5038103;28;20330;-75
2022/03/02 10:29:31;;;;;;;22.90;12.43;;;4.50;99.90;;;;;;5038663;28;20172;-75
2022/03/02 10:32:16;;;;;;;14.67;9.00;;;5.00;99.90;;;;;;5038011;28;20187;-75
2022/03/02 10:34:51;;;;;;;10.97;8.63;;;5.00;99.90;;;;;;5071116;28;20180;-74
2022/03/02 10:37:20;;;;;;;12.17;8.80;;;4.80;99.90;;;;;;5054350;28;20192;-74
2022/03/02 10:40:13;;;;;;;11.80;9.00;;;4.70;99.90;;;;;;5070820;28;20196;-75
2022/03/02 10:43:01;;;;;;;12.83;8.60;;;4.80;99.90;;;;;;5071281;28;20227;-74
2022/03/02 10:45:31;;;;;;;14.23;8.47;;;5.20;99.90;;;;;;5037763;28;20199;-76
2022/03/02 10:48:17;;;;;;;12.17;8.40;;;5.60;99.90;;;;;;5038230;28;20257;-77
2022/03/02 10:50:43;;;;;;;11.60;8.00;;;5.80;99.90;;;;;;5071164;28;20683;-77
2022/03/02 10:53:15;;;;;;;11.40;8.50;;;5.70;99.90;;;;;;5037478;28;20756;-77
2022/03/02 10:55:48;;;;;;;9.20;7.70;;;5.90;99.90;;;;;;5054271;28;20172;-77
2022/03/02 10:58:17;;;;;;;11.97;8.00;;;5.80;99.90;;;;;;5037796;28;20184;-76
2022/03/02 11:00:44;;;;;;;11.33;7.80;;;6.20;99.90;;;;;;5054255;28;20196;-76
2022/03/02 11:03:12;;;;;;;12.53;8.47;;;6.80;99.90;;;;;;5054117;28;20228;-76
2022/03/02 11:05:39;;;;;;;12.73;8.40;;;6.90;99.90;;;;;;5037460;28;20209;-77
2022/03/02 11:08:05;;;;;;;10.80;7.77;;;6.90;99.90;;;;;;5037645;28;20243;-77
2022/03/02 11:10:33;;;;;;;10.30;7.43;;;6.80;99.90;;;;;;5037589;28;20197;-76
2022/03/02 11:13:13;;;;;;;23.07;11.03;;;6.70;99.90;;;;;;5037784;28;20178;-76
2022/03/02 11:16:00;;;;;;;18.47;9.37;;;7.70;99.90;;;;;;5025808;28;20273;-76
2022/03/02 11:18:41;;;;;;;13.07;7.77;;;9.50;99.90;;;;;;5059091;28;20208;-76
2022/03/02 11:21:14;;;;;;;13.03;8.33;;;9.00;99.90;;;;;;5077968;23;20693;-77
2022/03/02 11:23:43;;;;;;;11.33;6.50;;;9.40;99.90;;;;;;5037663;28;20265;-77
2022/03/02 11:26:12;;;;;;;12.33;8.03;;;10.10;99.90;;;;;;5038038;28;20201;-77
2022/03/02 11:28:38;;;;;;;11.60;7.27;;;10.50;99.90;;;;;;5021585;28;20716;-77
2022/03/02 11:31:08;;;;;;;8.07;6.57;;;10.40;99.90;;;;;;5017940;28;20209;-79
2022/03/02 11:33:35;;;;;;;11.50;7.80;;;10.30;99.90;;;;;;5017886;28;20238;-77
2022/03/02 11:36:14;;;;;;;10.93;8.60;;;10.30;99.90;;;;;;5018179;28;20263;-77
2022/03/02 11:38:42;;;;;;;8.67;7.07;;;10.20;97.20;;;;;;5034759;28;20224;-77
2022/03/02 11:41:09;;;;;;;10.00;6.80;;;9.80;95.90;;;;;;5034434;28;20201;-77
2022/03/02 11:43:35;;;;;;;9.43;6.47;;;9.20;95.90;;;;;;5034213;28;20247;-77
2022/03/02 11:46:07;;;;;;;8.77;6.50;;;8.70;97.50;;;;;;5034129;28;20201;-77
2022/03/02 11:48:38;;;;;;;9.33;6.60;;;8.50;97.50;;;;;;5001651;28;20188;-77
2022/03/02 11:51:23;;;;;;;9.13;6.30;;;8.70;98.30;;;;;;5002071;28;20229;-77
2022/03/02 11:53:58;;;;;;;8.53;6.20;;;8.90;96.90;;;;;;5002052;28;20675;-77
2022/03/02 11:56:26;;;;;;;7.47;6.03;;;8.90;94.90;;;;;;5034171;28;20193;-77
2022/03/02 11:59:11;;;;;;;9.03;6.80;;;8.80;95.20;;;;;;5017523;28;20201;-77
2022/03/02 12:01:53;;;;;;;8.07;6.10;;;8.80;94.60;;;;;;5001236;28;20226;-77
2022/03/02 12:04:19;;;;;;;7.23;6.00;;;8.70;94.50;;;;;;5017287;28;20557;-77
2022/03/02 12:06:51;;;;;;;8.27;6.13;;;8.50;94.30;;;;;;5034035;28;20203;-77
2022/03/02 12:09:23;;;;;;;7.67;6.33;;;8.40;95.30;;;;;;5001299;28;20198;-77
2022/03/02 12:11:49;;;;;;;7.43;6.20;;;8.40;97.50;;;;;;5034977;28;20187;-77
2022/03/02 12:14:15;;;;;;;10.10;6.90;;;8.40;95.60;;;;;;5033567;28;20184;-77
2022/03/02 12:16:44;;;;;;;7.17;6.03;;;8.50;96.70;;;;;;5033936;28;20184;-77
2022/03/02 12:19:21;;;;;;;8.57;6.13;;;8.50;96.10;;;;;;5017027;28;20190;-77
2022/03/02 12:21:47;;;;;;;7.40;5.70;;;8.60;94.40;;;;;;5033453;28;20213;-77
2022/03/02 12:24:18;;;;;;;7.47;5.93;;;8.70;94.70;;;;;;5033480;28;20181;-77
2022/03/02 12:26:49;;;;;;;8.83;6.23;;;8.80;93.80;;;;;;5016139;28;20207;-77
2022/03/02 12:29:16;;;;;;;7.37;5.60;;;9.00;93.90;;;;;;5016912;28;20179;-79
2022/03/02 12:31:46;;;;;;;8.40;6.27;;;9.20;92.60;;;;;;5001344;28;20256;-78
2022/03/02 12:34:16;;;;;;;11.63;10.13;;;10.10;94.10;;;;;;5033492;28;20205;-78
2022/03/02 12:36:43;;;;;;;6.53;5.70;;;10.70;90.80;;;;;;5032047;28;20208;-78
2022/03/02 12:39:10;;;;;;;7.83;6.03;;;10.70;83.20;;;;;;5016592;28;20264;-78
2022/03/02 12:41:36;;;;;;;8.37;6.20;;;10.50;85.70;;;;;;5016825;28;20200;-78
2022/03/02 12:44:03;;;;;;;10.10;6.00;;;10.50;86.40;;;;;;5033225;28;20189;-78
2022/03/02 12:46:29;;;;;;;7.80;6.20;;;10.30;83.90;;;;;;5033207;28;20198;-78
2022/03/02 12:48:56;;;;;;;6.53;5.60;;;9.90;85.30;;;;;;5032989;28;20532;-78
2022/03/02 12:51:23;;;;;;;9.37;7.20;;;9.80;89.50;;;;;;5016414;28;20281;-77
2022/03/02 12:53:49;;;;;;;7.80;6.10;;;10.10;87.00;;;;;;5000088;28;20177;-77